createdAt,value
2019-03-26T00:00:52.888Z,94.51
2019-03-26T00:01:53.055Z,94.51
2019-03-26T00:02:53.246Z,94.42
2019-03-26T00:04:05.132Z,94.79
2019-03-26T00:04:53.602Z,94.79
2019-03-26T00:05:53.790Z,94.98
2019-03-26T00:06:53.994Z,94.51
2019-03-26T00:07:54.172Z,94.60
2019-03-26T00:08:54.355Z,94.70
2019-03-26T00:09:54.545Z,94.23
2019-03-26T00:10:54.726Z,94.13
2019-03-26T00:11:54.918Z,94.60
2019-03-26T00:12:55.101Z,94.51
2019-03-26T00:13:57.593Z,94.60
2019-03-26T00:14:55.467Z,94.79
2019-03-26T00:15:55.650Z,94.70
2019-03-26T00:16:55.820Z,94.42
2019-03-26T00:17:55.996Z,94.42
2019-03-26T00:18:56.184Z,94.42
2019-03-26T00:19:56.366Z,94.13
2019-03-26T00:20:56.590Z,94.42
2019-03-26T00:21:56.775Z,94.03
2019-03-26T00:22:56.956Z,94.42
2019-03-26T00:23:57.136Z,94.13
2019-03-26T00:24:57.312Z,94.51
2019-03-26T00:25:57.512Z,94.23
2019-03-26T00:26:57.696Z,94.42
2019-03-26T00:27:57.940Z,94.13
2019-03-26T00:28:58.049Z,94.13
2019-03-26T00:29:58.226Z,94.13
2019-03-26T00:30:58.421Z,94.51
2019-03-26T00:31:58.594Z,94.42
2019-03-26T00:32:58.792Z,94.32
2019-03-26T00:33:58.949Z,94.13
2019-03-26T00:34:59.133Z,94.13
2019-03-26T00:35:59.317Z,94.32
2019-03-26T00:36:59.507Z,94.42
2019-03-26T00:37:59.682Z,94.13
2019-03-26T00:38:59.855Z,94.42
2019-03-26T00:40:00.048Z,94.23
2019-03-26T00:41:00.231Z,94.42
2019-03-26T00:42:00.412Z,94.03
2019-03-26T00:43:00.596Z,94.03
2019-03-26T00:44:00.783Z,94.23
2019-03-26T00:45:00.970Z,94.23
2019-03-26T00:46:01.148Z,94.23
2019-03-26T00:47:01.343Z,93.94
2019-03-26T00:48:01.522Z,94.13
2019-03-26T00:49:01.701Z,94.23
2019-03-26T00:50:01.882Z,94.23
2019-03-26T00:51:02.063Z,94.42
2019-03-26T00:52:02.246Z,94.13
2019-03-26T00:53:02.437Z,94.13
2019-03-26T00:54:02.605Z,94.70
2019-03-26T00:55:02.796Z,94.13
2019-03-26T00:56:02.974Z,94.23
2019-03-26T00:57:03.161Z,94.23
2019-03-26T00:58:03.338Z,94.23
2019-03-26T00:59:03.531Z,94.23
2019-03-26T01:00:03.731Z,94.03
2019-03-26T01:01:03.916Z,94.13
2019-03-26T01:02:04.126Z,94.32
2019-03-26T01:03:04.295Z,94.23
2019-03-26T01:04:04.480Z,94.98
2019-03-26T01:05:04.674Z,94.23
2019-03-26T01:06:04.840Z,94.23
2019-03-26T01:07:05.010Z,94.13
2019-03-26T01:08:05.200Z,94.23
2019-03-26T01:09:05.380Z,94.03
2019-03-26T01:10:05.564Z,93.94
2019-03-26T01:11:05.745Z,94.23
2019-03-26T01:12:05.924Z,94.03
2019-03-26T01:13:06.117Z,94.03
2019-03-26T01:14:06.297Z,93.84
2019-03-26T01:15:06.489Z,94.13
2019-03-26T01:16:06.677Z,93.75
2019-03-26T01:17:06.856Z,94.03
2019-03-26T01:18:07.043Z,94.03
2019-03-26T01:19:07.241Z,94.60
2019-03-26T01:20:07.417Z,93.84
2019-03-26T01:21:07.599Z,94.03
2019-03-26T01:22:07.785Z,94.03
2019-03-26T01:23:07.965Z,94.03
2019-03-26T01:24:08.146Z,94.51
2019-03-26T01:25:08.328Z,94.13
2019-03-26T01:26:08.587Z,94.03
2019-03-26T01:27:08.689Z,93.84
2019-03-26T01:28:08.868Z,94.32
2019-03-26T01:29:09.054Z,94.13
2019-03-26T01:30:09.231Z,94.13
2019-03-26T01:31:09.414Z,94.60
2019-03-26T01:32:09.602Z,94.60
2019-03-26T01:33:09.788Z,94.03
2019-03-26T01:34:09.966Z,94.03
2019-03-26T01:35:10.157Z,94.13
2019-03-26T01:36:10.333Z,94.13
2019-03-26T01:37:10.526Z,94.23
2019-03-26T01:38:10.704Z,94.23
2019-03-26T01:39:10.907Z,94.32
2019-03-26T01:40:11.089Z,94.51
2019-03-26T01:41:11.281Z,94.89
2019-03-26T01:42:11.463Z,94.60
2019-03-26T01:43:11.661Z,94.70
2019-03-26T01:44:11.843Z,94.23
2019-03-26T01:45:12.025Z,94.70
2019-03-26T01:46:12.208Z,94.03
2019-03-26T01:47:12.395Z,94.32
2019-03-26T01:48:12.575Z,94.79
2019-03-26T01:49:12.756Z,94.23
2019-03-26T01:50:12.944Z,94.60
2019-03-26T01:51:13.125Z,94.51
2019-03-26T01:52:13.310Z,94.79
2019-03-26T01:53:13.495Z,94.03
2019-03-26T01:54:13.676Z,94.51
2019-03-26T01:55:13.851Z,94.65
2019-03-26T01:56:14.034Z,94.08
2019-03-26T01:57:14.221Z,95.03
2019-03-26T01:58:14.400Z,95.31
2019-03-26T01:59:14.583Z,95.22
2019-03-26T02:00:14.765Z,94.84
2019-03-26T02:01:14.944Z,95.22
2019-03-26T02:02:15.128Z,95.12
2019-03-26T02:03:15.316Z,95.31
2019-03-26T02:04:15.503Z,95.69
2019-03-26T02:05:15.687Z,95.50
2019-03-26T02:06:15.870Z,95.79
2019-03-26T02:07:16.057Z,95.79
2019-03-26T02:08:16.230Z,95.03
2019-03-26T02:09:16.419Z,96.17
2019-03-26T02:10:16.601Z,95.88
2019-03-26T02:11:16.784Z,95.69
2019-03-26T02:12:16.981Z,95.69
2019-03-26T02:13:17.161Z,95.69
2019-03-26T02:14:17.344Z,95.22
2019-03-26T02:15:17.528Z,95.50
2019-03-26T02:16:17.709Z,95.69
2019-03-26T02:17:17.891Z,95.69
2019-03-26T02:18:18.071Z,95.98
2019-03-26T02:19:18.253Z,96.17
2019-03-26T02:20:18.441Z,95.60
2019-03-26T02:21:18.613Z,96.17
2019-03-26T02:22:18.791Z,96.31
2019-03-26T02:23:18.984Z,96.41
2019-03-26T02:24:19.172Z,96.41
2019-03-26T02:25:19.350Z,96.50
2019-03-26T02:26:19.530Z,96.50
2019-03-26T02:27:19.712Z,96.78
2019-03-26T02:28:19.899Z,96.88
2019-03-26T02:29:20.079Z,96.88
2019-03-26T02:30:20.260Z,96.88
2019-03-26T02:31:20.453Z,96.78
2019-03-26T02:32:20.634Z,97.16
2019-03-26T02:33:20.816Z,97.26
2019-03-26T02:34:21.015Z,97.16
2019-03-26T02:35:21.201Z,97.26
2019-03-26T02:36:21.371Z,97.35
2019-03-26T02:37:21.704Z,97.92
2019-03-26T02:38:21.754Z,97.64
2019-03-26T02:39:21.924Z,98.11
2019-03-26T02:40:22.096Z,97.73
2019-03-26T02:41:22.277Z,97.83
2019-03-26T02:42:22.460Z,97.73
2019-03-26T02:43:22.637Z,98.02
2019-03-26T02:44:22.818Z,98.02
2019-03-26T02:45:23.001Z,98.49
2019-03-26T02:46:23.208Z,98.49
2019-03-26T02:47:23.390Z,98.30
2019-03-26T02:48:23.549Z,98.21
2019-03-26T02:49:23.726Z,98.49
2019-03-26T02:50:23.901Z,98.39
2019-03-26T02:51:24.104Z,98.54
2019-03-26T02:52:24.304Z,97.50
2019-03-26T02:53:24.472Z,98.07
2019-03-26T02:54:24.650Z,97.50
2019-03-26T02:55:24.844Z,97.12
2019-03-26T02:56:25.014Z,97.12
2019-03-26T02:57:25.198Z,97.31
2019-03-26T02:58:25.372Z,97.02
2019-03-26T02:59:25.561Z,97.02
2019-03-26T03:00:25.738Z,96.64
2019-03-26T03:01:25.921Z,96.83
2019-03-26T03:02:26.104Z,96.45
2019-03-26T03:03:26.296Z,96.26
2019-03-26T03:04:26.466Z,95.69
2019-03-26T03:05:34.904Z,95.69
2019-03-26T03:06:26.826Z,95.88
2019-03-26T03:07:27.009Z,95.60
2019-03-26T03:08:27.185Z,95.41
2019-03-26T03:09:27.366Z,94.93
2019-03-26T03:10:27.550Z,94.46
2019-03-26T03:11:27.734Z,95.22
2019-03-26T03:12:27.910Z,94.98
2019-03-26T03:13:28.098Z,94.89
2019-03-26T03:14:28.276Z,94.70
2019-03-26T03:15:28.457Z,95.36
2019-03-26T03:16:28.643Z,94.51
2019-03-26T03:17:28.827Z,94.42
2019-03-26T03:18:29.011Z,94.32
2019-03-26T03:19:29.186Z,94.60
2019-03-26T03:20:29.366Z,94.32
2019-03-26T03:21:29.565Z,94.03
2019-03-26T03:22:29.732Z,94.13
2019-03-26T03:23:29.928Z,94.23
2019-03-26T03:24:30.102Z,93.94
2019-03-26T03:25:30.286Z,93.84
2019-03-26T03:26:30.464Z,93.75
2019-03-26T03:27:30.650Z,93.84
2019-03-26T03:28:30.834Z,94.23
2019-03-26T03:29:31.015Z,94.23
2019-03-26T03:30:31.192Z,94.23
2019-03-26T03:31:31.377Z,94.13
2019-03-26T03:32:31.564Z,94.32
2019-03-26T03:33:31.733Z,93.84
2019-03-26T03:34:31.926Z,94.03
2019-03-26T03:35:32.103Z,93.84
2019-03-26T03:36:32.293Z,94.32
2019-03-26T03:37:32.471Z,93.84
2019-03-26T03:38:32.646Z,93.84
2019-03-26T03:39:32.829Z,93.46
2019-03-26T03:40:33.017Z,94.03
2019-03-26T03:41:33.196Z,94.23
2019-03-26T03:42:33.378Z,93.65
2019-03-26T03:43:33.563Z,93.84
2019-03-26T03:44:33.740Z,93.84
2019-03-26T03:45:33.922Z,93.94
2019-03-26T03:46:34.102Z,93.56
2019-03-26T03:47:34.284Z,93.84
2019-03-26T03:48:34.467Z,93.46
2019-03-26T03:49:34.649Z,94.03
2019-03-26T03:50:34.822Z,93.65
2019-03-26T03:51:35.001Z,93.75
2019-03-26T03:52:35.563Z,94.13
2019-03-26T03:53:35.377Z,94.03
2019-03-26T03:54:35.550Z,93.94
2019-03-26T03:55:35.730Z,93.84
2019-03-26T03:56:35.934Z,93.94
2019-03-26T03:57:36.099Z,94.03
2019-03-26T03:58:36.283Z,93.94
2019-03-26T03:59:36.470Z,93.94
2019-03-26T04:00:36.655Z,94.13
2019-03-26T04:01:36.832Z,93.75
2019-03-26T04:02:37.012Z,93.65
2019-03-26T04:03:37.189Z,93.94
2019-03-26T04:04:37.381Z,93.94
2019-03-26T04:05:37.559Z,93.46
2019-03-26T04:06:37.738Z,94.13
2019-03-26T04:07:37.922Z,94.23
2019-03-26T04:08:38.102Z,93.94
2019-03-26T04:09:38.287Z,94.60
2019-03-26T04:10:38.470Z,93.84
2019-03-26T04:11:38.653Z,94.23
2019-03-26T04:12:38.835Z,93.56
2019-03-26T04:13:39.006Z,93.94
2019-03-26T04:14:39.240Z,93.65
2019-03-26T04:15:39.376Z,94.03
2019-03-26T04:16:39.552Z,94.13
2019-03-26T04:17:39.736Z,93.65
2019-03-26T04:18:39.914Z,93.94
2019-03-26T04:19:40.109Z,94.51
2019-03-26T04:20:40.303Z,94.13
2019-03-26T04:21:40.474Z,93.46
2019-03-26T04:22:40.652Z,94.03
2019-03-26T04:23:40.918Z,94.13
2019-03-26T04:24:41.011Z,93.56
2019-03-26T04:25:41.187Z,93.75
2019-03-26T04:26:41.411Z,94.03
2019-03-26T04:27:41.585Z,93.75
2019-03-26T04:28:41.766Z,94.51
2019-03-26T04:29:41.980Z,93.94
2019-03-26T04:30:42.140Z,93.94
2019-03-26T04:31:42.329Z,93.56
2019-03-26T04:32:42.510Z,94.42
2019-03-26T04:33:42.692Z,94.03
2019-03-26T04:34:42.870Z,93.65
2019-03-26T04:35:43.060Z,94.60
2019-03-26T04:36:43.234Z,93.84
2019-03-26T04:37:43.420Z,93.75
2019-03-26T04:38:43.602Z,93.84
2019-03-26T04:39:43.784Z,93.84
2019-03-26T04:40:43.962Z,93.37
2019-03-26T04:41:44.149Z,93.84
2019-03-26T04:42:44.330Z,93.46
2019-03-26T04:43:44.515Z,93.37
2019-03-26T04:44:44.699Z,93.65
2019-03-26T04:45:44.879Z,93.75
2019-03-26T04:46:45.147Z,93.75
2019-03-26T04:47:45.252Z,93.84
2019-03-26T04:48:45.433Z,94.13
2019-03-26T04:49:45.616Z,93.65
2019-03-26T04:50:45.798Z,93.94
2019-03-26T04:51:45.978Z,94.03
2019-03-26T04:52:46.161Z,94.51
2019-03-26T04:53:46.339Z,94.60
2019-03-26T04:54:46.521Z,94.03
2019-03-26T04:55:46.722Z,94.42
2019-03-26T04:56:46.907Z,94.32
2019-03-26T04:57:47.089Z,93.84
2019-03-26T04:58:47.269Z,93.94
2019-03-26T04:59:47.455Z,94.89
2019-03-26T05:00:47.642Z,94.13
2019-03-26T05:01:47.811Z,93.37
2019-03-26T05:02:47.988Z,94.23
2019-03-26T05:03:48.172Z,94.23
2019-03-26T05:04:48.350Z,93.46
2019-03-26T05:05:48.534Z,93.27
2019-03-26T05:06:48.715Z,93.56
2019-03-26T05:07:48.908Z,93.84
2019-03-26T05:08:49.092Z,93.46
2019-03-26T05:09:49.271Z,93.94
2019-03-26T05:10:49.493Z,93.37
2019-03-26T05:11:49.637Z,94.03
2019-03-26T05:12:49.814Z,93.46
2019-03-26T05:13:49.997Z,93.56
2019-03-26T05:14:50.188Z,94.23
2019-03-26T05:15:50.370Z,93.37
2019-03-26T05:16:50.552Z,93.37
2019-03-26T05:17:50.735Z,93.94
2019-03-26T05:18:50.915Z,93.46
2019-03-26T05:19:51.094Z,93.94
2019-03-26T05:20:51.275Z,94.60
2019-03-26T05:21:51.454Z,94.60
2019-03-26T05:22:51.639Z,94.32
2019-03-26T05:23:52.145Z,93.46
2019-03-26T05:24:51.997Z,93.84
2019-03-26T05:25:52.180Z,94.60
2019-03-26T05:26:52.369Z,94.03
2019-03-26T05:27:52.550Z,94.13
2019-03-26T05:28:52.727Z,93.75
2019-03-26T05:29:52.909Z,94.42
2019-03-26T05:30:53.089Z,94.51
2019-03-26T05:31:53.280Z,94.03
2019-03-26T05:32:53.480Z,94.03
2019-03-26T05:33:53.649Z,93.84
2019-03-26T05:34:53.865Z,93.27
2019-03-26T05:35:53.982Z,94.03
2019-03-26T05:36:54.186Z,93.84
2019-03-26T05:37:54.389Z,93.84
2019-03-26T05:38:54.602Z,94.03
2019-03-26T05:39:54.764Z,94.23
2019-03-26T05:40:54.967Z,94.03
2019-03-26T05:41:55.173Z,93.99
2019-03-26T05:42:55.347Z,94.32
2019-03-26T05:43:55.530Z,94.23
2019-03-26T05:44:55.777Z,93.56
2019-03-26T05:45:55.897Z,93.84
2019-03-26T05:46:56.081Z,93.27
2019-03-26T05:47:56.266Z,93.56
2019-03-26T05:48:56.480Z,93.94
2019-03-26T05:49:56.644Z,94.13
2019-03-26T05:50:56.828Z,93.65
2019-03-26T05:51:57.005Z,94.13
2019-03-26T05:52:57.194Z,94.79
2019-03-26T05:53:57.353Z,94.79
2019-03-26T05:54:57.540Z,94.42
2019-03-26T05:55:57.721Z,94.23
2019-03-26T05:56:57.902Z,94.60
2019-03-26T05:57:58.094Z,94.42
2019-03-26T05:58:58.290Z,94.13
2019-03-26T05:59:58.480Z,94.23
2019-03-26T06:00:58.666Z,94.79
2019-03-26T06:01:58.846Z,94.23
2019-03-26T06:02:59.026Z,93.94
2019-03-26T06:03:59.212Z,93.18
2019-03-26T06:04:59.397Z,93.46
2019-03-26T06:05:59.576Z,93.46
2019-03-26T06:07:05.006Z,94.60
2019-03-26T06:07:59.937Z,94.23
2019-03-26T06:09:00.125Z,94.23
2019-03-26T06:10:00.376Z,94.70
2019-03-26T06:11:00.484Z,94.60
2019-03-26T06:12:00.666Z,94.60
2019-03-26T06:13:00.856Z,94.89
2019-03-26T06:14:01.057Z,93.94
2019-03-26T06:15:01.230Z,94.51
2019-03-26T06:16:01.410Z,94.23
2019-03-26T06:17:01.596Z,94.23
2019-03-26T06:18:01.777Z,94.60
2019-03-26T06:19:01.965Z,94.51
2019-03-26T06:20:02.148Z,94.23
2019-03-26T06:21:02.339Z,93.56
2019-03-26T06:22:02.521Z,94.60
2019-03-26T06:23:02.711Z,94.89
2019-03-26T06:24:02.897Z,94.74
2019-03-26T06:25:03.090Z,94.46
2019-03-26T06:26:03.266Z,94.27
2019-03-26T06:27:03.446Z,93.89
2019-03-26T06:28:03.633Z,93.99
2019-03-26T06:29:03.818Z,94.27
2019-03-26T06:30:03.998Z,93.89
2019-03-26T06:31:04.183Z,93.70
2019-03-26T06:32:04.364Z,93.27
2019-03-26T06:33:04.547Z,93.60
2019-03-26T06:34:04.731Z,93.99
2019-03-26T06:35:04.912Z,94.56
2019-03-26T06:36:05.094Z,93.51
2019-03-26T06:37:17.353Z,93.51
2019-03-26T06:38:05.472Z,94.46
2019-03-26T06:39:05.651Z,94.37
2019-03-26T06:40:05.838Z,93.70
2019-03-26T06:41:06.025Z,93.99
2019-03-26T06:42:06.212Z,94.08
2019-03-26T06:43:06.401Z,93.89
2019-03-26T06:44:06.582Z,93.80
2019-03-26T06:45:06.775Z,94.27
2019-03-26T06:46:06.945Z,93.89
2019-03-26T06:47:07.130Z,94.08
2019-03-26T06:48:07.319Z,94.08
2019-03-26T06:49:07.523Z,93.89
2019-03-26T06:50:07.693Z,93.99
2019-03-26T06:51:07.888Z,93.51
2019-03-26T06:52:08.076Z,93.99
2019-03-26T06:53:08.276Z,93.89
2019-03-26T06:54:08.428Z,93.70
2019-03-26T06:55:08.624Z,93.89
2019-03-26T06:56:08.808Z,93.51
2019-03-26T06:57:08.992Z,93.32
2019-03-26T06:58:09.170Z,93.46
2019-03-26T06:59:09.351Z,93.89
2019-03-26T07:00:09.532Z,93.23
2019-03-26T07:01:09.725Z,93.89
2019-03-26T07:02:09.921Z,94.46
2019-03-26T07:03:10.107Z,93.89
2019-03-26T07:04:10.296Z,93.60
2019-03-26T07:05:10.481Z,94.65
2019-03-26T07:06:10.663Z,94.18
2019-03-26T07:07:10.853Z,93.41
2019-03-26T07:08:11.031Z,93.99
2019-03-26T07:09:11.214Z,93.32
2019-03-26T07:10:11.397Z,93.51
2019-03-26T07:11:11.597Z,94.23
2019-03-26T07:12:11.763Z,92.47
2019-03-26T07:13:11.942Z,92.75
2019-03-26T07:14:12.122Z,92.37
2019-03-26T07:15:12.306Z,92.56
2019-03-26T07:16:12.482Z,92.37
2019-03-26T07:17:12.665Z,91.80
2019-03-26T07:18:12.845Z,91.89
2019-03-26T07:19:13.030Z,91.42
2019-03-26T07:20:13.211Z,91.80
2019-03-26T07:21:13.386Z,91.89
2019-03-26T07:22:13.568Z,91.71
2019-03-26T07:23:13.760Z,91.24
2019-03-26T07:24:13.937Z,91.99
2019-03-26T07:25:14.118Z,91.24
2019-03-26T07:26:14.316Z,92.18
2019-03-26T07:27:14.501Z,92.94
2019-03-26T07:28:14.663Z,91.80
2019-03-26T07:29:14.849Z,91.42
2019-03-26T07:30:15.032Z,91.61
2019-03-26T07:31:15.209Z,91.71
2019-03-26T07:32:15.391Z,90.71
2019-03-26T07:33:15.573Z,90.57
2019-03-26T07:34:15.762Z,90.52
2019-03-26T07:35:15.945Z,90.57
2019-03-26T07:36:16.126Z,90.52
2019-03-26T07:37:16.313Z,90.47
2019-03-26T07:38:16.493Z,89.53
2019-03-26T07:39:16.681Z,90.00
2019-03-26T07:40:16.866Z,90.85
2019-03-26T07:41:17.062Z,90.38
2019-03-26T07:42:17.254Z,90.47
2019-03-26T07:43:17.440Z,90.09
2019-03-26T07:44:17.616Z,90.38
2019-03-26T07:45:17.796Z,90.28
2019-03-26T07:46:17.987Z,90.47
2019-03-26T07:47:18.171Z,90.00
2019-03-26T07:48:18.363Z,90.38
2019-03-26T07:49:18.610Z,90.00
2019-03-26T07:50:18.733Z,90.00
2019-03-26T07:51:18.914Z,90.66
2019-03-26T07:52:19.096Z,90.57
2019-03-26T07:53:19.275Z,91.33
2019-03-26T07:54:19.461Z,91.52
2019-03-26T07:55:19.665Z,91.61
2019-03-26T07:56:19.846Z,91.33
2019-03-26T07:57:20.030Z,90.76
2019-03-26T07:58:20.209Z,91.42
2019-03-26T07:59:20.388Z,91.33
2019-03-26T08:00:20.571Z,90.28
2019-03-26T08:01:20.757Z,90.33
2019-03-26T08:02:20.939Z,90.28
2019-03-26T08:03:21.343Z,89.57
2019-03-26T08:04:21.311Z,89.09
2019-03-26T08:05:29.588Z,88.81
2019-03-26T08:06:21.683Z,88.71
2019-03-26T08:07:21.867Z,89.00
2019-03-26T08:08:22.052Z,88.05
2019-03-26T08:09:22.360Z,87.95
2019-03-26T08:10:22.419Z,87.67
2019-03-26T08:11:22.608Z,89.76
2019-03-26T08:12:22.794Z,88.62
2019-03-26T08:13:23.083Z,88.81
2019-03-26T08:14:23.189Z,88.43
2019-03-26T08:15:23.417Z,88.34
2019-03-26T08:16:23.536Z,87.76
2019-03-26T08:17:23.733Z,86.95
2019-03-26T08:18:23.910Z,87.24
2019-03-26T08:19:24.086Z,86.10
2019-03-26T08:20:24.271Z,86.38
2019-03-26T08:21:24.457Z,86.76
2019-03-26T08:22:24.655Z,86.67
2019-03-26T08:23:24.848Z,86.57
2019-03-26T08:24:25.034Z,85.81
2019-03-26T08:25:25.211Z,84.86
2019-03-26T08:26:25.394Z,87.52
2019-03-26T08:27:25.580Z,86.29
2019-03-26T08:28:25.766Z,85.86
2019-03-26T08:29:25.949Z,86.34
2019-03-26T08:30:26.135Z,87.01
2019-03-26T08:31:26.317Z,87.10
2019-03-26T08:32:26.505Z,86.57
2019-03-26T08:33:26.688Z,86.29
2019-03-26T08:34:26.877Z,84.58
2019-03-26T08:35:27.066Z,85.43
2019-03-26T08:36:27.252Z,86.57
2019-03-26T08:37:27.436Z,85.91
2019-03-26T08:38:27.619Z,85.91
2019-03-26T08:39:28.666Z,86.86
2019-03-26T08:42:10.677Z,86.47
2019-03-26T08:43:10.869Z,85.96
2019-03-26T08:44:11.055Z,85.39
2019-03-26T08:45:11.239Z,85.77
2019-03-26T08:46:11.425Z,86.00
2019-03-26T08:47:11.606Z,84.53
2019-03-26T08:48:11.797Z,85.49
2019-03-26T08:49:14.212Z,85.77
2019-03-26T08:50:12.164Z,86.34
2019-03-26T08:51:12.349Z,85.96
2019-03-26T08:52:12.530Z,86.34
2019-03-26T08:53:12.715Z,85.96
2019-03-26T08:54:12.902Z,85.58
2019-03-26T08:55:13.081Z,85.39
2019-03-26T08:56:13.267Z,84.63
2019-03-26T08:57:13.465Z,85.86
2019-03-26T08:58:13.651Z,85.96
2019-03-26T08:59:13.837Z,86.34
2019-03-26T09:00:14.018Z,85.86
2019-03-26T09:01:14.199Z,84.34
2019-03-26T09:02:14.384Z,84.82
2019-03-26T09:03:14.565Z,85.20
2019-03-26T09:04:14.750Z,84.91
2019-03-26T09:05:14.939Z,84.53
2019-03-26T09:06:15.123Z,84.39
2019-03-26T09:07:15.313Z,84.34
2019-03-26T09:08:24.864Z,84.77
2019-03-26T09:09:15.700Z,85.53
2019-03-26T09:10:15.880Z,85.15
2019-03-26T09:11:16.059Z,85.49
2019-03-26T09:12:16.252Z,86.15
2019-03-26T09:13:16.439Z,85.34
2019-03-26T09:14:16.622Z,85.53
2019-03-26T09:15:16.806Z,85.49
2019-03-26T09:16:16.987Z,86.15
2019-03-26T09:17:19.712Z,86.38
2019-03-26T09:18:17.352Z,85.34
2019-03-26T09:19:17.541Z,85.34
2019-03-26T09:20:17.725Z,84.72
2019-03-26T09:21:17.909Z,85.58
2019-03-26T09:22:18.092Z,86.34
2019-03-26T09:23:18.279Z,85.68
2019-03-26T09:24:18.460Z,85.96
2019-03-26T09:25:18.646Z,85.77
2019-03-26T09:26:18.825Z,86.15
2019-03-26T09:27:19.006Z,86.05
2019-03-26T09:28:19.190Z,86.05
2019-03-26T09:29:19.373Z,86.72
2019-03-26T09:30:19.558Z,87.29
2019-03-26T09:31:19.737Z,87.10
2019-03-26T09:32:19.924Z,87.01
2019-03-26T09:33:20.104Z,86.72
2019-03-26T09:34:20.291Z,85.68
2019-03-26T09:35:20.474Z,86.34
2019-03-26T09:36:20.665Z,86.63
2019-03-26T09:37:20.854Z,87.95
2019-03-26T09:38:21.032Z,87.48
2019-03-26T09:39:21.221Z,87.19
2019-03-26T09:40:21.402Z,87.95
2019-03-26T09:41:21.586Z,87.86
2019-03-26T09:42:21.765Z,87.86
2019-03-26T09:43:21.952Z,88.34
2019-03-26T09:44:22.130Z,87.48
2019-03-26T09:45:22.319Z,87.86
2019-03-26T09:46:22.504Z,87.01
2019-03-26T09:47:22.689Z,86.67
2019-03-26T09:48:22.874Z,86.95
2019-03-26T09:49:23.050Z,85.91
2019-03-26T09:50:23.233Z,86.19
2019-03-26T09:51:23.415Z,86.10
2019-03-26T09:52:23.596Z,86.10
2019-03-26T09:53:23.778Z,86.19
2019-03-26T09:54:23.964Z,86.10
2019-03-26T09:55:24.148Z,85.91
2019-03-26T09:56:29.377Z,84.58
2019-03-26T09:57:24.523Z,83.62
2019-03-26T09:58:24.713Z,83.76
2019-03-26T09:59:24.898Z,83.58
2019-03-26T10:00:25.110Z,83.19
2019-03-26T10:01:25.283Z,82.91
2019-03-26T10:02:25.469Z,82.34
2019-03-26T10:03:25.650Z,83.00
2019-03-26T10:04:25.826Z,82.57
2019-03-26T10:05:26.011Z,82.38
2019-03-26T10:06:26.194Z,83.42
2019-03-26T10:07:26.377Z,81.24
2019-03-26T10:08:26.563Z,80.66
2019-03-26T10:09:26.750Z,80.19
2019-03-26T10:10:26.929Z,80.82
2019-03-26T10:11:27.112Z,80.91
2019-03-26T10:12:27.296Z,81.10
2019-03-26T10:13:27.493Z,82.39
2019-03-26T10:14:27.679Z,82.68
2019-03-26T10:15:27.859Z,82.68
2019-03-26T10:16:28.054Z,82.96
2019-03-26T10:17:28.243Z,83.00
2019-03-26T10:18:28.427Z,82.53
2019-03-26T10:19:28.623Z,82.05
2019-03-26T10:20:28.790Z,81.20
2019-03-26T10:21:28.992Z,80.19
2019-03-26T10:22:29.172Z,77.56
2019-03-26T10:23:29.361Z,77.37
2019-03-26T10:24:29.554Z,76.52
2019-03-26T10:25:29.748Z,76.27
2019-03-26T10:26:29.945Z,74.98
2019-03-26T10:27:30.129Z,73.81
2019-03-26T10:28:30.320Z,70.54
2019-03-26T10:29:31.230Z,68.73
2019-03-26T10:30:30.701Z,67.91
2019-03-26T10:31:30.896Z,66.44
2019-03-26T10:32:31.082Z,67.11
2019-03-26T10:33:31.270Z,68.73
2019-03-26T10:34:31.459Z,68.92
2019-03-26T10:35:31.649Z,69.08
2019-03-26T10:36:31.863Z,69.52
2019-03-26T10:37:32.038Z,70.00
2019-03-26T10:38:32.234Z,70.25
2019-03-26T10:39:32.426Z,71.87
2019-03-26T10:40:32.613Z,73.68
2019-03-26T10:41:32.809Z,73.58
2019-03-26T10:42:33.005Z,73.39
2019-03-26T10:43:33.188Z,71.72
2019-03-26T10:44:33.390Z,71.62
2019-03-26T10:45:33.568Z,72.16
2019-03-26T10:46:33.758Z,72.13
2019-03-26T10:47:33.942Z,71.04
2019-03-26T10:48:34.139Z,72.09
2019-03-26T10:49:34.325Z,72.86
2019-03-26T10:50:34.521Z,71.08
2019-03-26T10:51:34.726Z,71.23
2019-03-26T10:52:34.923Z,72.82
2019-03-26T10:53:35.116Z,73.49
2019-03-26T10:54:35.308Z,74.02
2019-03-26T10:55:35.500Z,75.07
2019-03-26T10:56:35.680Z,75.23
2019-03-26T10:57:35.880Z,75.79
2019-03-26T10:58:36.066Z,77.47
2019-03-26T10:59:36.255Z,78.99
2019-03-26T11:00:36.445Z,78.99
2019-03-26T11:01:36.634Z,78.04
2019-03-26T11:02:36.823Z,78.90
2019-03-26T11:03:37.021Z,79.19
2019-03-26T11:04:37.207Z,79.47
2019-03-26T11:05:37.398Z,79.75
2019-03-26T11:06:37.585Z,79.09
2019-03-26T11:07:37.776Z,79.19
2019-03-26T11:08:37.962Z,79.85
2019-03-26T11:09:38.153Z,79.66
2019-03-26T11:10:38.345Z,79.94
2019-03-26T11:11:38.531Z,79.19
2019-03-26T11:12:38.725Z,79.19
2019-03-26T11:13:38.912Z,79.85
2019-03-26T11:14:39.103Z,79.19
2019-03-26T11:15:39.288Z,79.19
2019-03-26T11:16:39.472Z,79.85
2019-03-26T11:17:39.670Z,79.09
2019-03-26T11:18:39.858Z,78.75
2019-03-26T11:19:40.045Z,77.98
2019-03-26T11:20:40.233Z,78.12
2019-03-26T11:21:40.431Z,77.40
2019-03-26T11:22:40.607Z,75.40
2019-03-26T11:23:40.794Z,74.31
2019-03-26T11:24:40.982Z,74.98
2019-03-26T11:25:41.169Z,74.31
2019-03-26T11:26:41.354Z,74.21
2019-03-26T11:27:41.544Z,72.28
2019-03-26T11:28:41.728Z,70.22
2019-03-26T11:29:41.921Z,69.65
2019-03-26T11:30:42.109Z,69.11
2019-03-26T11:31:42.300Z,67.83
2019-03-26T11:32:42.485Z,67.90
2019-03-26T11:33:42.675Z,68.98
2019-03-26T11:34:42.863Z,68.12
2019-03-26T11:35:43.053Z,67.01
2019-03-26T11:36:43.242Z,66.38
2019-03-26T11:37:43.429Z,65.77
2019-03-26T11:38:43.624Z,65.96
2019-03-26T11:39:43.816Z,65.30
2019-03-26T11:40:44.009Z,65.30
2019-03-26T11:41:44.199Z,64.43
2019-03-26T11:42:44.401Z,65.33
2019-03-26T11:43:44.588Z,67.14
2019-03-26T11:44:44.805Z,67.80
2019-03-26T11:45:44.985Z,68.05
2019-03-26T11:46:45.188Z,68.78
2019-03-26T11:47:45.377Z,69.74
2019-03-26T11:48:45.565Z,70.18
2019-03-26T11:49:45.750Z,70.37
2019-03-26T11:50:45.939Z,70.37
2019-03-26T11:51:46.126Z,70.02
2019-03-26T11:52:46.314Z,70.02
2019-03-26T11:53:46.516Z,70.31
2019-03-26T11:54:46.696Z,69.26
2019-03-26T11:55:46.887Z,69.54
2019-03-26T11:56:47.068Z,69.68
2019-03-26T11:57:47.268Z,70.40
2019-03-26T11:58:47.451Z,70.31
2019-03-26T11:59:47.677Z,70.12
2019-03-26T12:00:47.838Z,70.37
2019-03-26T12:01:48.014Z,70.47
2019-03-26T12:02:48.203Z,71.51
2019-03-26T12:03:48.388Z,70.88
2019-03-26T12:04:48.580Z,70.02
2019-03-26T12:05:48.763Z,71.17
2019-03-26T12:06:48.952Z,70.40
2019-03-26T12:07:49.143Z,69.64
2019-03-26T12:08:49.354Z,69.64
2019-03-26T12:09:49.540Z,69.87
2019-03-26T12:10:49.727Z,70.21
2019-03-26T12:11:49.923Z,70.25
2019-03-26T12:12:50.109Z,68.63
2019-03-26T12:13:50.297Z,68.63
2019-03-26T12:14:50.490Z,69.10
2019-03-26T12:15:50.674Z,67.90
2019-03-26T12:16:50.861Z,67.04
2019-03-26T12:17:51.065Z,66.53
2019-03-26T12:18:51.239Z,67.29
2019-03-26T12:19:51.432Z,67.29
2019-03-26T12:20:51.621Z,67.48
2019-03-26T12:21:51.805Z,67.77
2019-03-26T12:22:51.995Z,67.68
2019-03-26T12:23:52.183Z,67.16
2019-03-26T12:24:52.374Z,66.91
2019-03-26T12:25:52.558Z,65.92
2019-03-26T12:26:52.745Z,66.31
2019-03-26T12:27:52.931Z,67.26
2019-03-26T12:28:53.123Z,67.35
2019-03-26T12:29:53.322Z,67.07
2019-03-26T12:30:53.508Z,66.50
2019-03-26T12:31:53.701Z,67.22
2019-03-26T12:32:53.890Z,68.94
2019-03-26T12:33:54.095Z,69.60
2019-03-26T12:34:54.277Z,70.18
2019-03-26T12:35:54.459Z,70.18
2019-03-26T12:36:54.648Z,70.27
2019-03-26T12:37:54.835Z,69.51
2019-03-26T12:38:55.024Z,69.51
2019-03-26T12:39:59.943Z,69.79
2019-03-26T12:40:55.403Z,70.27
2019-03-26T12:41:55.597Z,71.13
2019-03-26T12:42:55.781Z,70.75
2019-03-26T12:43:55.971Z,70.18
2019-03-26T12:44:56.157Z,70.18
2019-03-26T12:45:56.338Z,71.32
2019-03-26T12:46:58.329Z,72.75
2019-03-26T12:47:56.706Z,71.98
2019-03-26T12:48:56.895Z,71.51
2019-03-26T12:49:57.079Z,71.42
2019-03-26T12:50:57.272Z,71.95
2019-03-26T12:51:57.462Z,72.05
2019-03-26T12:52:57.651Z,72.81
2019-03-26T12:53:57.853Z,72.81
2019-03-26T12:54:58.046Z,72.90
2019-03-26T12:55:58.228Z,73.38
2019-03-26T12:56:58.416Z,73.47